Time,TemperatureF,DewpointF,PressureIn,WindDirection,WindDirectionDegrees,WindSpeedMPH,WindSpeedGustMPH,Humidity,HourlyPrecipIn,Conditions,Clouds,dailyrainin,SoftwareType,DateUTC
2013-02-14 00:02:00,43.8,36.0,30.32,ESE,113,0.0,1.0,73,0.00,,,0.00,weatherlink.com 1.10,2013-02-14 08:02:00,
2013-02-14 00:17:00,43.7,35.0,30.32,SW,224,0.0,1.0,71,0.00,,,0.00,weatherlink.com 1.10,2013-02-14 08:17:00,
2013-02-14 00:32:00,43.9,35.0,30.33,SW,233,0.0,1.0,70,0.00,,,0.00,weatherlink.com 1.10,2013-02-14 08:32:00,
2013-02-14 00:47:00,43.3,34.0,30.33,WSW,248,0.0,1.0,71,0.00,,,0.00,weatherlink.com 1.10,2013-02-14 08:47:00,
2013-02-14 01:02:00,44.9,33.0,30.33,WSW,248,0.0,0.0,64,0.00,,,0.00,weatherlink.com 1.10,2013-02-14 09:02:00,
2013-02-14 01:17:00,45.2,33.0,30.33,ESE,110,1.0,2.0,62,0.00,,,0.00,weatherlink.com 1.10,2013-02-14 09:17:00,
2013-02-14 01:32:00,45.8,33.0,30.33,ESE,111,0.0,1.0,61,0.00,,,0.00,weatherlink.com 1.10,2013-02-14 09:32:00,
2013-02-14 01:47:00,44.6,32.0,30.33,ESE,111,0.0,0.0,62,0.00,,,0.00,weatherlink.com 1.10,2013-02-14 09:47:00,
2013-02-14 02:02:00,44.6,32.0,30.33,SSE,152,0.0,1.0,62,0.00,,,0.00,weatherlink.com 1.10,2013-02-14 10:02:00,
2013-02-14 02:17:00,44.8,32.0,30.32,ESE,110,0.0,0.0,61,0.00,,,0.00,weatherlink.com 1.10,2013-02-14 10:17:00,
2013-02-14 02:32:00,42.4,33.0,30.32,ESE,103,0.0,0.0,69,0.00,,,0.00,weatherlink.com 1.10,2013-02-14 10:32:00,
2013-02-14 02:47:00,42.9,33.0,30.32,WSW,246,0.0,0.0,67,0.00,,,0.00,weatherlink.com 1.10,2013-02-14 10:47:00,
2013-02-14 03:02:00,42.2,33.0,30.32,SSW,193,0.0,0.0,69,0.00,,,0.00,weatherlink.com 1.10,2013-02-14 11:02:00,
2013-02-14 03:17:00,41.8,32.0,30.31,SSW,195,0.0,0.0,69,0.00,,,0.00,weatherlink.com 1.10,2013-02-14 11:17:00,
2013-02-14 03:33:00,41.5,32.0,30.31,SSW,194,0.0,0.0,69,0.00,,,0.00,weatherlink.com 1.10,2013-02-14 11:33:00,
2013-02-14 03:48:00,42.4,32.0,30.31,ESE,111,3.0,3.0,68,0.00,,,0.00,weatherlink.com 1.10,2013-02-14 11:48:00,
2013-02-14 04:03:00,44.2,33.0,30.30,ENE,65,1.0,2.0,64,0.00,,,0.00,weatherlink.com 1.10,2013-02-14 12:03:00,
2013-02-14 04:33:00,43.6,32.0,30.30,ENE,73,1.0,2.0,64,0.00,,,0.00,weatherlink.com 1.10,2013-02-14 12:33:00,
2013-02-14 04:48:00,45.6,32.0,30.30,ENE,78,1.0,4.0,60,0.00,,,0.00,weatherlink.com 1.10,2013-02-14 12:48:00,
2013-02-14 05:03:00,45.2,32.0,30.30,ENE,71,0.0,1.0,60,0.00,,,0.00,weatherlink.com 1.10,2013-02-14 13:03:00,
2013-02-14 05:18:00,42.5,32.0,30.30,SSW,207,0.0,1.0,67,0.00,,,0.00,weatherlink.com 1.10,2013-02-14 13:18:00,
2013-02-14 05:33:00,41.1,32.0,30.30,SE,131,0.0,1.0,70,0.00,,,0.00,weatherlink.com 1.10,2013-02-14 13:33:00,
2013-02-14 05:48:00,41.1,32.0,30.30,SW,226,0.0,0.0,69,0.00,,,0.00,weatherlink.com 1.10,2013-02-14 13:48:00,
2013-02-14 06:03:00,41.8,32.0,30.30,West,266,0.0,1.0,68,0.00,,,0.00,weatherlink.com 1.10,2013-02-14 14:03:00,
2013-02-14 06:18:00,42.5,32.0,30.30,NNW,333,0.0,1.0,66,0.00,,,0.00,weatherlink.com 1.10,2013-02-14 14:18:00,
2013-02-14 06:33:00,42.6,32.0,30.30,NNE,31,0.0,0.0,66,0.00,,,0.00,weatherlink.com 1.10,2013-02-14 14:33:00,
2013-02-14 06:48:00,41.6,32.0,30.30,WSW,248,0.0,4.0,69,0.00,,,0.00,weatherlink.com 1.10,2013-02-14 14:48:00,
2013-02-14 07:03:00,42.0,32.0,30.31,West,271,2.0,2.0,68,0.00,,,0.00,weatherlink.com 1.10,2013-02-14 15:03:00,
2013-02-14 07:18:00,43.7,33.0,30.31,SW,229,0.0,3.0,66,0.00,,,0.00,weatherlink.com 1.10,2013-02-14 15:18:00,
2013-02-14 07:33:00,44.9,34.0,30.32,East,82,0.0,3.0,65,0.00,,,0.00,weatherlink.com 1.10,2013-02-14 15:33:00,
2013-02-14 07:48:00,44.7,33.0,30.32,NE,51,0.0,1.0,65,0.00,,,0.00,weatherlink.com 1.10,2013-02-14 15:48:00,
2013-02-14 08:03:00,45.5,35.0,30.32,NE,56,0.0,0.0,66,0.00,,,0.00,weatherlink.com 1.10,2013-02-14 16:03:00,
2013-02-14 08:18:00,45.6,35.0,30.32,West,263,0.0,1.0,66,0.00,,,0.00,weatherlink.com 1.10,2013-02-14 16:18:00,
2013-02-14 08:33:00,47.5,34.0,30.33,WSW,237,3.0,4.0,61,0.00,,,0.00,weatherlink.com 1.10,2013-02-14 16:33:00,
2013-02-14 08:48:00,49.3,35.0,30.33,SW,235,0.0,1.0,58,0.00,,,0.00,weatherlink.com 1.10,2013-02-14 16:48:00,
2013-02-14 09:03:00,49.3,37.0,30.34,SSW,207,2.0,3.0,62,0.00,,,0.00,weatherlink.com 1.10,2013-02-14 17:03:00,
2013-02-14 09:18:00,49.8,37.0,30.33,SSW,197,0.0,2.0,62,0.00,,,0.00,weatherlink.com 1.10,2013-02-14 17:18:00,
2013-02-14 09:33:00,50.7,38.0,30.33,SW,229,1.0,3.0,61,0.00,,,0.00,weatherlink.com 1.10,2013-02-14 17:33:00,
2013-02-14 09:48:00,51.9,37.0,30.33,WSW,245,2.0,3.0,58,0.00,,,0.00,weatherlink.com 1.10,2013-02-14 17:48:00,
2013-02-14 10:03:00,53.2,37.0,30.33,WSW,253,0.0,2.0,55,0.00,,,0.00,weatherlink.com 1.10,2013-02-14 18:03:00,
2013-02-14 10:18:00,55.8,40.0,30.33,NNE,19,0.0,1.0,56,0.00,,,0.00,weatherlink.com 1.10,2013-02-14 18:18:00,
2013-02-14 10:33:00,56.7,40.0,30.32,East,91,0.0,2.0,54,0.00,,,0.00,weatherlink.com 1.10,2013-02-14 18:33:00,
2013-02-14 10:48:00,58.4,42.0,30.32,NNE,12,0.0,1.0,54,0.00,,,0.00,weatherlink.com 1.10,2013-02-14 18:48:00,
2013-02-14 11:03:00,59.9,39.0,30.31,WSW,240,1.0,3.0,46,0.00,,,0.00,weatherlink.com 1.10,2013-02-14 19:03:00,
2013-02-14 11:18:00,61.2,42.0,30.30,East,101,2.0,3.0,49,0.00,,,0.00,weatherlink.com 1.10,2013-02-14 19:18:00,
2013-02-14 11:33:00,61.5,43.0,30.30,SW,228,3.0,3.0,50,0.00,,,0.00,weatherlink.com 1.10,2013-02-14 19:33:00,
2013-02-14 11:49:00,63.8,41.0,30.30,WSW,250,2.0,2.0,44,0.00,,,0.00,weatherlink.com 1.10,2013-02-14 19:49:00,
2013-02-14 12:04:00,64.6,42.0,30.30,West,264,0.0,4.0,44,0.00,,,0.00,weatherlink.com 1.10,2013-02-14 20:04:00,
2013-02-14 12:19:00,65.2,42.0,30.29,NE,43,2.0,4.0,43,0.00,,,0.00,weatherlink.com 1.10,2013-02-14 20:19:00,
2013-02-14 12:34:00,65.4,43.0,30.28,West,276,0.0,2.0,45,0.00,,,0.00,weatherlink.com 1.10,2013-02-14 20:34:00,
2013-02-14 12:49:00,65.6,44.0,30.27,West,278,3.0,3.0,45,0.00,,,0.00,weatherlink.com 1.10,2013-02-14 20:49:00,
2013-02-14 13:04:00,65.0,44.0,30.27,East,79,0.0,5.0,47,0.00,,,0.00,weatherlink.com 1.10,2013-02-14 21:04:00,
2013-02-14 13:19:00,66.5,44.0,30.26,West,262,0.0,5.0,45,0.00,,,0.00,weatherlink.com 1.10,2013-02-14 21:19:00,
2013-02-14 13:34:00,65.3,43.0,30.27,WSW,253,4.0,6.0,45,0.00,,,0.00,weatherlink.com 1.10,2013-02-14 21:34:00,
2013-02-14 13:49:00,65.3,44.0,30.26,WNW,303,1.0,5.0,46,0.00,,,0.00,weatherlink.com 1.10,2013-02-14 21:49:00,
2013-02-14 14:04:00,64.8,44.0,30.27,WNW,286,2.0,5.0,47,0.00,,,0.00,weatherlink.com 1.10,2013-02-14 22:04:00,
2013-02-14 14:19:00,63.6,44.0,30.27,WSW,253,5.0,7.0,50,0.00,,,0.00,weatherlink.com 1.10,2013-02-14 22:19:00,
2013-02-14 14:34:00,62.4,45.0,30.27,WSW,253,3.0,8.0,53,0.00,,,0.00,weatherlink.com 1.10,2013-02-14 22:34:00,
2013-02-14 14:49:00,61.8,44.0,30.26,WSW,245,5.0,5.0,53,0.00,,,0.00,weatherlink.com 1.10,2013-02-14 22:49:00,
2013-02-14 15:04:00,62.2,44.0,30.26,WSW,238,4.0,6.0,52,0.00,,,0.00,weatherlink.com 1.10,2013-02-14 23:04:00,
2013-02-14 15:19:00,62.0,44.0,30.27,WSW,240,3.0,6.0,52,0.00,,,0.00,weatherlink.com 1.10,2013-02-14 23:19:00,
2013-02-14 15:49:00,62.8,44.0,30.27,West,268,1.0,4.0,51,0.00,,,0.00,weatherlink.com 1.10,2013-02-14 23:49:00,
2013-02-14 16:04:00,63.0,44.0,30.27,WSW,250,0.0,3.0,50,0.00,,,0.00,weatherlink.com 1.10,2013-02-15 00:04:00,
2013-02-14 16:19:00,63.1,44.0,30.26,WSW,256,2.0,4.0,50,0.00,,,0.00,weatherlink.com 1.10,2013-02-15 00:19:00,
2013-02-14 16:34:00,63.3,44.0,30.26,SW,226,1.0,3.0,50,0.00,,,0.00,weatherlink.com 1.10,2013-02-15 00:34:00,
2013-02-14 16:49:00,63.3,44.0,30.26,WSW,248,0.0,0.0,50,0.00,,,0.00,weatherlink.com 1.10,2013-02-15 00:49:00,
2013-02-14 17:04:00,62.7,45.0,30.26,WSW,248,1.0,1.0,52,0.00,,,0.00,weatherlink.com 1.10,2013-02-15 01:04:00,
2013-02-14 17:19:00,60.8,44.0,30.26,WSW,246,2.0,2.0,54,0.00,,,0.00,weatherlink.com 1.10,2013-02-15 01:19:00,
2013-02-14 17:34:00,58.2,43.0,30.26,SW,236,0.0,1.0,58,0.00,,,0.00,weatherlink.com 1.10,2013-02-15 01:34:00,
2013-02-14 17:49:00,57.0,43.0,30.26,SW,231,1.0,3.0,60,0.00,,,0.00,weatherlink.com 1.10,2013-02-15 01:49:00,
2013-02-14 18:04:00,55.7,42.0,30.26,SW,226,1.0,3.0,61,0.00,,,0.00,weatherlink.com 1.10,2013-02-15 02:04:00,
2013-02-14 18:19:00,55.4,42.0,30.27,SW,228,0.0,1.0,62,0.00,,,0.00,weatherlink.com 1.10,2013-02-15 02:19:00,
2013-02-14 18:34:00,54.7,42.0,30.27,WSW,238,0.0,2.0,63,0.00,,,0.00,weatherlink.com 1.10,2013-02-15 02:34:00,
2013-02-14 18:49:00,54.5,42.0,30.27,WSW,238,0.0,0.0,64,0.00,,,0.00,weatherlink.com 1.10,2013-02-15 02:49:00,
2013-02-14 19:04:00,52.8,42.0,30.27,WSW,238,0.0,0.0,67,0.00,,,0.00,weatherlink.com 1.10,2013-02-15 03:04:00,
2013-02-14 19:19:00,52.9,43.0,30.27,WSW,238,0.0,1.0,70,0.00,,,0.00,weatherlink.com 1.10,2013-02-15 03:19:00,
2013-02-14 19:34:00,53.7,43.0,30.28,WSW,237,0.0,0.0,68,0.00,,,0.00,weatherlink.com 1.10,2013-02-15 03:34:00,
2013-02-14 19:49:00,53.4,43.0,30.28,WSW,238,0.0,0.0,68,0.00,,,0.00,weatherlink.com 1.10,2013-02-15 03:49:00,
2013-02-14 20:04:00,51.5,43.0,30.27,WSW,237,0.0,0.0,72,0.00,,,0.00,weatherlink.com 1.10,2013-02-15 04:04:00,
2013-02-14 20:19:00,51.7,43.0,30.27,WSW,238,0.0,0.0,72,0.00,,,0.00,weatherlink.com 1.10,2013-02-15 04:19:00,
2013-02-14 20:34:00,51.2,43.0,30.28,WSW,238,0.0,1.0,73,0.00,,,0.00,weatherlink.com 1.10,2013-02-15 04:34:00,
2013-02-14 20:49:00,50.0,43.0,30.28,SW,228,1.0,2.0,76,0.00,,,0.00,weatherlink.com 1.10,2013-02-15 04:49:00,
2013-02-14 21:04:00,50.8,42.0,30.29,SW,235,0.0,2.0,73,0.00,,,0.00,weatherlink.com 1.10,2013-02-15 05:04:00,
2013-02-14 21:19:00,50.6,42.0,30.29,SW,218,1.0,1.0,73,0.00,,,0.00,weatherlink.com 1.10,2013-02-15 05:19:00,
2013-02-14 21:34:00,50.8,42.0,30.29,ENE,72,1.0,3.0,73,0.00,,,0.00,weatherlink.com 1.10,2013-02-15 05:34:00,
2013-02-14 21:49:00,50.5,37.0,30.29,SW,232,0.0,1.0,60,0.00,,,0.00,weatherlink.com 1.10,2013-02-15 05:49:00,
2013-02-14 22:04:00,52.2,37.0,30.30,SW,231,1.0,1.0,57,0.00,,,0.00,weatherlink.com 1.10,2013-02-15 06:04:00,
2013-02-14 22:19:00,52.3,36.0,30.29,SW,221,1.0,1.0,54,0.00,,,0.00,weatherlink.com 1.10,2013-02-15 06:19:00,
2013-02-14 22:34:00,53.2,34.0,30.30,SSW,194,0.0,0.0,49,0.00,,,0.00,weatherlink.com 1.10,2013-02-15 06:34:00,
2013-02-14 22:49:00,52.5,37.0,30.30,ESE,103,0.0,0.0,56,0.00,,,0.00,weatherlink.com 1.10,2013-02-15 06:49:00,
2013-02-14 23:04:00,52.8,31.0,30.30,ESE,109,0.0,0.0,44,0.00,,,0.00,weatherlink.com 1.10,2013-02-15 07:04:00,
2013-02-14 23:19:00,52.2,31.0,30.30,ESE,108,0.0,0.0,44,0.00,,,0.00,weatherlink.com 1.10,2013-02-15 07:19:00,
2013-02-14 23:34:00,52.6,32.0,30.31,SW,226,0.0,0.0,45,0.00,,,0.00,weatherlink.com 1.10,2013-02-15 07:34:00,
2013-02-14 23:49:00,52.1,41.0,30.31,SW,231,0.0,0.0,65,0.00,,,0.00,weatherlink.com 1.10,2013-02-15 07:49:00,